Meteorología y climatología de Navarra
Datos de la estación - Meteo Navarra

Estación de Yesa GN

Altitud 487 m.


Datos desde el 02/08/2020 hasta el 03/08/2020 en horario solar
Los datos son PROVISIONALES

Anterior Página 1 de 1 Siguiente Descargar: Formato para Excel 2000 o superior   Formato csv   Formato para OpenOffice Calc
Fecha Temperatura Humedad relativa Radiación global Insolación Precipitación Vel. viento 10 m Vel. viento 10 m Dir. viento 10 m
ºC % W/m² s l/m² m/s km/h º
02/08/2020 0:00 22.4 60 0.0 0 0.0 2.7 9.8 30
02/08/2020 0:10 22.3 60 0.0 0 0.0 2.9 10.5 21
02/08/2020 0:20 22.8 59 0.0 0 0.0 1.9 6.7 264
02/08/2020 0:30 22.2 63 0.0 0 0.0 1.0 3.7 234
02/08/2020 0:40 21.5 67 0.0 0 0.0 0.6 2.3 199
02/08/2020 0:50 21.0 70 0.0 0 0.0 1.3 4.5 204
02/08/2020 1:00 21.0 72 0.0 0 0.0 1.4 5.1 196
02/08/2020 1:10 20.5 73 0.0 0 0.0 0.3 1.0 97
02/08/2020 1:20 20.3 74 0.0 0 0.0 0.7 2.6 44
02/08/2020 1:30 20.2 74 0.0 0 0.0 1.2 4.2 244
02/08/2020 1:40 20.2 74 0.0 0 0.0 0.9 3.2 293
02/08/2020 1:50 20.0 75 0.0 0 0.0 0.6 2.1 192
02/08/2020 2:00 20.0 76 0.0 0 0.0 1.4 4.9 164
02/08/2020 2:10 19.8 76 0.0 0 0.0 0.6 2.3 280
02/08/2020 2:20 19.6 77 0.0 0 0.0 0.6 2.3 279
02/08/2020 2:30 19.0 79 0.0 0 0.0 0.9 3.3 323
02/08/2020 2:40 19.1 80 0.0 0 0.0 1.3 4.8 326
02/08/2020 2:50 19.9 76 0.0 0 0.0 2.3 8.3 285
02/08/2020 3:00 19.9 75 0.0 0 0.0 1.4 5.0 273
02/08/2020 3:10 19.7 76 0.0 0 0.0 0.5 1.8 237
02/08/2020 3:20 19.8 75 0.0 0 0.0 2.8 9.9 289
02/08/2020 3:30 20.1 73 0.0 0 0.0 1.7 6.2 286
02/08/2020 3:40 19.7 74 0.0 0 0.0 0.9 3.1 214
02/08/2020 3:50 19.4 75 0.0 0 0.0 1.0 3.4 157
02/08/2020 4:00 19.2 76 0.0 0 0.0 1.1 4.0 211
02/08/2020 4:10 18.8 77 0.0 0 0.0 0.8 2.8 266
02/08/2020 4:20 19.0 77 0.0 0 0.0 1.1 3.9 292
02/08/2020 4:30 18.9 77 0.0 0 0.0 0.9 3.4 35
02/08/2020 4:40 18.5 78 0.0 0 0.0 0.4 1.6 291
02/08/2020 4:50 18.1 79 0.0 0 0.0 0.7 2.6 340
02/08/2020 5:00 18.1 80 0.0 0 0.0 1.0 3.7 89
02/08/2020 5:10 18.4 78 0.0 0 0.0 1.2 4.4 155
02/08/2020 5:20 18.5 77 0.0 0 0.0 1.0 3.5 177
02/08/2020 5:30 18.2 78 6.9 0 0.0 0.7 2.7 208
02/08/2020 5:40 18.3 79 19.7 0 0.0 0.5 1.8 220
02/08/2020 5:50 18.3 79 73.0 430 0.0 0.4 1.5 302
02/08/2020 6:00 18.3 80 111.3 600 0.0 0.7 2.4 73
02/08/2020 6:10 19.2 76 139.0 600 0.0 1.4 5.1 172
02/08/2020 6:20 19.9 73 169.2 600 0.0 0.7 2.5 110
02/08/2020 6:30 20.4 70 199.0 600 0.0 0.8 2.8 195
02/08/2020 6:40 21.0 68 231.5 600 0.0 0.8 3.0 216
02/08/2020 6:50 21.4 67 265.1 600 0.0 1.1 3.9 229
02/08/2020 7:00 21.7 66 298.7 600 0.0 1.6 5.9 200
02/08/2020 7:10 22.0 65 331.3 600 0.0 1.6 5.8 191
02/08/2020 7:20 22.2 63 362.7 600 0.0 1.7 6.0 202
02/08/2020 7:30 22.4 62 367.7 552 0.0 1.8 6.6 178
02/08/2020 7:40 22.8 61 422.6 600 0.0 1.7 6.2 198
02/08/2020 7:50 23.1 60 453.7 600 0.0 1.7 6.2 212
02/08/2020 8:00 23.5 59 483.9 600 0.0 1.6 5.9 213
02/08/2020 8:10 23.6 58 515.2 600 0.0 1.9 6.8 194
02/08/2020 8:20 23.9 57 549.3 600 0.0 2.0 7.1 171
02/08/2020 8:30 23.7 58 588.3 600 0.0 4.3 15.6 347
02/08/2020 8:40 24.0 58 624.1 600 0.0 2.3 8.2 359
02/08/2020 8:50 24.6 56 618.0 600 0.0 3.3 11.8 347
02/08/2020 9:00 24.6 55 687.9 600 0.0 3.9 13.9 325
02/08/2020 9:10 24.9 54 643.2 600 0.0 4.5 16.1 315
02/08/2020 9:20 25.0 53 721.5 600 0.0 5.8 20.8 318
02/08/2020 9:30 25.2 53 744.4 600 0.0 6.0 21.4 314
02/08/2020 9:40 25.3 52 757.9 600 0.0 6.1 21.9 319
02/08/2020 9:50 25.2 52 793.5 600 0.0 6.3 22.8 318
02/08/2020 10:00 25.3 53 665.5 502 0.0 5.5 19.7 327
02/08/2020 10:10 25.3 52 870.0 600 0.0 5.6 20.1 330
02/08/2020 10:20 25.4 52 735.2 584 0.0 5.9 21.2 321
02/08/2020 10:30 25.4 51 807.0 600 0.0 6.4 22.9 323
02/08/2020 10:40 25.5 51 781.6 600 0.0 5.2 18.7 329
02/08/2020 10:50 25.6 50 857.0 600 0.0 6.2 22.1 323
02/08/2020 11:00 25.7 50 924.0 600 0.0 6.4 23.0 323
02/08/2020 11:10 25.8 50 924.0 600 0.0 7.3 26.2 317
02/08/2020 11:20 25.9 49 932.0 600 0.0 6.6 23.8 322
02/08/2020 11:30 26.0 49 940.0 600 0.0 6.4 23.1 326
02/08/2020 11:40 26.0 49 945.0 600 0.0 6.4 22.9 331
02/08/2020 11:50 26.1 49 948.0 600 0.0 7.2 25.9 320
02/08/2020 12:00 26.0 48 956.0 600 0.0 7.2 25.9 322
02/08/2020 12:10 26.1 49 985.0 600 0.0 5.2 18.8 343
02/08/2020 12:20 26.7 48 989.0 600 0.0 4.9 17.6 336
02/08/2020 12:30 26.5 48 1003.0 600 0.0 7.0 25.1 325
02/08/2020 12:40 26.7 47 1056.0 600 0.0 6.8 24.6 325
02/08/2020 12:50 27.0 46 1028.0 600 0.0 6.5 23.4 326
02/08/2020 13:00 27.2 46 974.0 600 0.0 6.0 21.6 324
02/08/2020 13:10 27.0 46 979.0 600 0.0 5.3 18.9 337
02/08/2020 13:20 27.4 45 850.0 582 0.0 5.1 18.2 341
02/08/2020 13:30 27.0 45 737.2 568 0.0 3.5 12.7 343
02/08/2020 13:40 27.3 45 691.4 600 0.0 5.3 19.0 329
02/08/2020 13:50 27.1 45 773.7 600 0.0 4.4 15.8 330
02/08/2020 14:00 26.9 46 646.1 396 0.0 5.2 18.6 326
02/08/2020 14:10 25.8 49 365.7 0 0.0 6.7 24.2 324
02/08/2020 14:20 24.7 51 311.1 0 0.0 6.8 24.3 329
02/08/2020 14:30 24.2 51 313.6 0 0.0 6.6 23.9 329
02/08/2020 14:40 24.1 49 461.4 400 0.0 4.9 17.8 338
02/08/2020 14:50 24.2 48 472.2 462 0.0 6.2 22.4 355
02/08/2020 15:00 24.0 48 544.9 600 0.0 6.4 22.9 349
02/08/2020 15:10 24.3 48 590.3 600 0.0 6.1 22.0 355
02/08/2020 15:20 24.3 49 578.9 600 0.0 6.6 23.8 353
02/08/2020 15:30 24.3 49 575.9 600 0.0 6.8 24.6 354
02/08/2020 15:40 24.4 49 395.6 598 0.0 4.7 17.1 347
02/08/2020 15:50 24.0 50 343.3 352 0.0 5.4 19.3 356
02/08/2020 16:00 24.0 51 327.5 342 0.0 3.8 13.8 10
02/08/2020 16:10 23.7 51 259.8 0 0.0 4.5 16.3 20
02/08/2020 16:20 23.3 51 198.0 0 0.0 4.6 16.7 5
02/08/2020 16:30 23.2 52 195.6 0 0.0 3.8 13.5 3
02/08/2020 16:40 23.1 52 171.7 0 0.0 3.8 13.6 7
02/08/2020 16:50 22.8 52 208.3 56 0.0 5.0 18.1 9
02/08/2020 17:00 22.8 52 235.9 236 0.0 4.3 15.6 8
02/08/2020 17:10 22.9 52 219.1 256 0.0 4.0 14.5 1
02/08/2020 17:20 22.6 51 278.2 484 0.0 6.2 22.4 0
02/08/2020 17:30 22.9 50 321.7 600 0.0 4.2 15.1 351
02/08/2020 17:40 23.3 48 315.8 600 0.0 3.7 13.3 346
02/08/2020 17:50 23.1 46 267.9 600 0.0 4.5 16.1 346
02/08/2020 18:00 23.0 47 213.8 600 0.0 4.0 14.4 3
02/08/2020 18:10 22.8 47 135.0 404 0.0 4.9 17.7 344
02/08/2020 18:20 22.3 49 89.8 152 0.0 7.0 25.1 349
02/08/2020 18:30 21.9 51 52.1 0 0.0 5.0 18.0 344
02/08/2020 18:40 21.6 52 47.8 0 0.0 4.2 15.3 353
02/08/2020 18:50 21.4 53 31.2 0 0.0 3.6 13.0 1
02/08/2020 19:00 21.2 53 22.2 0 0.0 3.8 13.8 3
02/08/2020 19:10 21.2 54 6.4 0 0.0 4.1 14.7 3
02/08/2020 19:20 20.8 55 0.0 0 0.0 4.4 16.0 2
02/08/2020 19:30 20.5 55 0.0 0 0.0 4.6 16.7 357
02/08/2020 19:40 20.5 55 0.0 0 0.0 4.5 16.3 355
02/08/2020 19:50 20.3 56 0.0 0 0.0 6.0 21.7 348
02/08/2020 20:00 20.3 56 0.0 0 0.0 5.5 19.7 344
02/08/2020 20:10 20.2 56 0.0 0 0.0 6.4 22.9 350
02/08/2020 20:20 20.2 57 0.0 0 0.0 7.0 25.3 350
02/08/2020 20:30 20.0 57 0.0 0 0.0 4.8 17.1 353
02/08/2020 20:40 20.2 57 0.0 0 0.0 5.4 19.4 358
02/08/2020 20:50 20.0 57 0.0 0 0.0 5.8 20.8 356
02/08/2020 21:00 20.1 58 0.0 0 0.0 5.2 18.6 353
02/08/2020 21:10 19.8 58 0.0 0 0.0 4.8 17.2 359
02/08/2020 21:20 19.7 58 0.0 0 0.0 5.8 20.8 348
02/08/2020 21:30 19.7 58 0.0 0 0.0 8.4 30.2 350
02/08/2020 21:40 19.5 57 0.0 0 0.0 8.0 28.9 347
02/08/2020 21:50 19.4 56 0.0 0 0.0 7.2 25.7 348
02/08/2020 22:00 19.3 56 0.0 0 0.0 5.7 20.5 354
02/08/2020 22:10 19.3 56 0.0 0 0.0 7.1 25.6 360
02/08/2020 22:20 19.5 56 0.0 0 0.0 7.3 26.2 3
02/08/2020 22:30 19.6 55 0.0 0 0.0 8.7 31.5 359
02/08/2020 22:40 19.5 54 0.0 0 0.0 7.4 26.5 359
02/08/2020 22:50 19.6 55 0.0 0 0.0 7.8 27.9 0
02/08/2020 23:00 19.4 55 0.0 0 0.0 4.9 17.6 36
02/08/2020 23:10 19.4 55 0.0 0 0.0 5.6 20.0 15
02/08/2020 23:20 19.4 55 0.0 0 0.0 5.1 18.4 9
02/08/2020 23:30 19.4 55 0.0 0 0.0 4.5 16.3 24
02/08/2020 23:40 19.2 56 0.0 0 0.0 3.6 12.8 2
02/08/2020 23:50 19.2 55 0.0 0 0.0 2.4 8.6 261
Anterior Página 1 de 1 Siguiente

NOTA: Tipo de datos según el color:
   - Valores diarios o 10 minutos correctos
   - Valores diarios calculados a partir de un número de datos 10 minutos menor que 144 y mayor que 120, o de un número de datos semihorarios menor que 48 y mayor que 40 (caso de las estaciones de INTIA y del Ministerio)
   - Valores diez minutos estimados


Contacto        Enlaces        Aviso legal